Portada
METAR-TAF:

METAR-TAF

Aeropuertos :

Alhucemas, Marruecos

Aeropuerto Cherif Al Idrissi

latitud: 35-11N, longitud: 003-51W, altitud: 27 m

Observación

El informe se hizo hace 38 minutos, a las 16:00 UTC
Viento 8 kt del noroeste
Temperatura 25°C
Humedad 74%
Presión 1017 hPa
Visibilidad: 8000 m
Escasas nubes a una altura de 2000 ft
Nubes dispersas a una altura de 20000 ft

METAR: GMTA 201600Z 32008KT 8000 FEW020 SCT200 25/20 Q1017 NOSIG

Hora: 17:38 (16:38 UTC)

Pronóstico

El informe se hizo hace 5 horas y 38 minutos, a las 11:00 UTC
Pronóstico válido del 20 a las 12 UTC al 21 a las 18 UTC
Viento 10 kt del norte-noroeste
Visibilidad: 8000 m
Escasas nubes a una altura de 1000 ft
Probabilidad 30%
del 20 a las 00 UTC al 21 a las 06 UTC
Viento 2 kt con dirección variable
Visibilidad: 3000 m
neblina

TAF: GMTA 201100Z 2012/2118 34010KT 8000 FEW010 PROB30 2000/2106 VRB02KT 3000 BR

Observaciones y pronósticos meteorológicos de más de 4000 aeropuertos (mensajes METAR y TAF).

Los puntos amarillos y rojos representan las estaciones disponibles.

Ponga el ratón en el punto deseado para ver el nombre de la estación.

Haga clic para ver las observaciones y los pronósticos meteorológicos.

Para cambiar el mapa : haga clic en los botones verdes con una cruz de color negro para hacer un zoom, en el botón verde con un guión para alejar o en las flechas verdes para mapas adyacentes.


METAR-TAF: